Colebrook, Connecticut
Current Conditions -  °F | °C
As of 11:51 PM on Sunday 19 Oct 2014 (Local Time) from KBDL Reporting Station
Few Clouds Few Clouds  
Wind Chill: 38°   Ceiling: Unl
Heat Index: 38°   Visibility: 10mi
Dew Point: 26°   Wind: 0mph
Humidity: 62%   Direction: NA
Pressure: 30.01"   Gusts: NA
Location:  41.99°N, 73.1°W
Report Text: KBDL 200351Z 00000KT 10SM FEW250 03/M03 A3001 RMK AO2 SLP164 T00331033
Loading
Personal Weather Stations






























Interactive Weather Map New forecast layout! Learn more

10-Day Weather Forecast

Advertisements
Track Severe Weather on mobile